KDVP

Slayton Municipal Airport

Slayton, Minnesota, USA
METAR KDVP 151922Z AUTO 23010KT 10SM SCT065 03/M02 A2978 RMK AO2 T00261017
Observed Flight Rules
Dec-15 @ 19:22 UTC (19 minutes ago) Visual Flight Rules
Wind Visibility Clouds
230° at 10 knots 10 miles
  • Scattered at 6,500' AGL
Temperatures Readings
Current 3°C / 37°F
Dewpoint -2°C / 28°F
Humidity 70%
Altimeter 29.78" Hg
Pressure 1008 hPa
Elevation 495
METAR KDVP 151922Z AUTO 23010KT 10SM SCT065 03/M02 A2978 RMK AO2 T00261017
Observed Flight Rules
Dec-15 @ 19:22 UTC
(19 minutes ago)
VFR
Wind Visibility
230° at 10 knots 10 miles
Clouds
  • Scattered at 6,500' AGL
Temperature Dewpoint
3°C / 37°F -2°C / 28°F
Humidity Altimeter Pressure
70% 29.78" Hg 1008 hPa